sensor_id;sensor_type;location;lat;lon;timestamp;P1;durP1;ratioP1;P2;durP2;ratioP2
25917;SDS011;13899;51.174;4.456;2023-03-19T00:01:55;4.50;;;2.05;;
25917;SDS011;13899;51.174;4.456;2023-03-19T00:04:22;5.77;;;2.97;;
25917;SDS011;13899;51.174;4.456;2023-03-19T00:09:14;2.35;;;2.15;;
25917;SDS011;13899;51.174;4.456;2023-03-19T00:11:40;2.47;;;2.07;;
25917;SDS011;13899;51.174;4.456;2023-03-19T00:14:06;2.50;;;2.30;;
25917;SDS011;13899;51.174;4.456;2023-03-19T00:16:31;4.13;;;2.10;;
25917;SDS011;13899;51.174;4.456;2023-03-19T00:18:57;4.00;;;2.50;;
25917;SDS011;13899;51.174;4.456;2023-03-19T00:21:23;5.40;;;2.73;;
25917;SDS011;13899;51.174;4.456;2023-03-19T00:23:49;5.05;;;2.40;;
25917;SDS011;13899;51.174;4.456;2023-03-19T00:26:15;2.53;;;2.05;;
25917;SDS011;13899;51.174;4.456;2023-03-19T00:28:41;4.07;;;2.30;;
25917;SDS011;13899;51.174;4.456;2023-03-19T00:31:07;2.55;;;2.33;;
25917;SDS011;13899;51.174;4.456;2023-03-19T00:33:35;3.60;;;2.47;;
25917;SDS011;13899;51.174;4.456;2023-03-19T00:36:01;3.70;;;2.30;;
25917;SDS011;13899;51.174;4.456;2023-03-19T00:38:28;4.70;;;2.55;;
25917;SDS011;13899;51.174;4.456;2023-03-19T00:40:54;3.10;;;2.15;;
25917;SDS011;13899;51.174;4.456;2023-03-19T00:43:19;3.78;;;2.63;;
25917;SDS011;13899;51.174;4.456;2023-03-19T00:45:45;3.58;;;3.03;;
25917;SDS011;13899;51.174;4.456;2023-03-19T00:48:10;3.30;;;3.00;;
25917;SDS011;13899;51.174;4.456;2023-03-19T00:50:36;3.08;;;2.78;;
25917;SDS011;13899;51.174;4.456;2023-03-19T00:53:02;4.50;;;3.17;;
25917;SDS011;13899;51.174;4.456;2023-03-19T00:55:27;4.23;;;3.83;;
25917;SDS011;13899;51.174;4.456;2023-03-19T00:57:53;5.35;;;4.00;;
25917;SDS011;13899;51.174;4.456;2023-03-19T01:00:19;4.20;;;3.80;;
25917;SDS011;13899;51.174;4.456;2023-03-19T01:02:44;4.47;;;3.85;;
25917;SDS011;13899;51.174;4.456;2023-03-19T01:05:10;7.03;;;4.07;;
25917;SDS011;13899;51.174;4.456;2023-03-19T01:07:36;6.68;;;4.47;;
25917;SDS011;13899;51.174;4.456;2023-03-19T01:10:02;8.52;;;5.03;;
25917;SDS011;13899;51.174;4.456;2023-03-19T01:12:27;5.43;;;4.93;;
25917;SDS011;13899;51.174;4.456;2023-03-19T01:14:53;4.87;;;4.47;;
25917;SDS011;13899;51.174;4.456;2023-03-19T01:17:19;5.83;;;5.23;;
25917;SDS011;13899;51.174;4.456;2023-03-19T01:19:44;5.35;;;4.70;;
25917;SDS011;13899;51.174;4.456;2023-03-19T01:22:10;5.63;;;5.10;;
25917;SDS011;13899;51.174;4.456;2023-03-19T01:24:37;7.00;;;6.00;;
25917;SDS011;13899;51.174;4.456;2023-03-19T01:27:02;7.20;;;5.70;;
25917;SDS011;13899;51.174;4.456;2023-03-19T01:29:28;5.67;;;5.17;;
25917;SDS011;13899;51.174;4.456;2023-03-19T01:31:53;6.10;;;5.60;;
25917;SDS011;13899;51.174;4.456;2023-03-19T01:34:19;6.38;;;5.70;;
25917;SDS011;13899;51.174;4.456;2023-03-19T01:36:45;5.67;;;5.17;;
25917;SDS011;13899;51.174;4.456;2023-03-19T01:39:11;6.57;;;5.53;;
25917;SDS011;13899;51.174;4.456;2023-03-19T01:41:36;5.97;;;5.47;;
25917;SDS011;13899;51.174;4.456;2023-03-19T01:44:02;7.35;;;5.57;;
25917;SDS011;13899;51.174;4.456;2023-03-19T01:46:36;7.20;;;6.07;;
25917;SDS011;13899;51.174;4.456;2023-03-19T01:49:04;5.65;;;5.15;;
25917;SDS011;13899;51.174;4.456;2023-03-19T01:51:33;6.10;;;5.60;;
25917;SDS011;13899;51.174;4.456;2023-03-19T01:54:04;6.47;;;5.78;;
25917;SDS011;13899;51.174;4.456;2023-03-19T01:56:35;9.05;;;6.22;;
25917;SDS011;13899;51.174;4.456;2023-03-19T01:59:06;7.10;;;6.40;;
25917;SDS011;13899;51.174;4.456;2023-03-19T02:01:36;7.53;;;6.07;;
25917;SDS011;13899;51.174;4.456;2023-03-19T02:04:10;6.68;;;6.07;;
25917;SDS011;13899;51.174;4.456;2023-03-19T02:06:37;6.50;;;5.88;;
25917;SDS011;13899;51.174;4.456;2023-03-19T02:09:04;6.63;;;6.03;;
25917;SDS011;13899;51.174;4.456;2023-03-19T02:11:30;6.78;;;6.13;;
25917;SDS011;13899;51.174;4.456;2023-03-19T02:13:56;7.83;;;7.10;;
25917;SDS011;13899;51.174;4.456;2023-03-19T02:16:22;7.85;;;6.15;;
25917;SDS011;13899;51.174;4.456;2023-03-19T02:18:47;8.43;;;6.57;;
25917;SDS011;13899;51.174;4.456;2023-03-19T02:21:14;6.70;;;6.05;;
25917;SDS011;13899;51.174;4.456;2023-03-19T02:26:16;8.68;;;6.43;;
25917;SDS011;13899;51.174;4.456;2023-03-19T02:28:45;7.78;;;6.03;;
25917;SDS011;13899;51.174;4.456;2023-03-19T02:31:12;8.77;;;7.15;;
25917;SDS011;13899;51.174;4.456;2023-03-19T02:33:40;7.47;;;6.78;;
25917;SDS011;13899;51.174;4.456;2023-03-19T02:36:10;9.32;;;7.53;;
25917;SDS011;13899;51.174;4.456;2023-03-19T02:38:39;7.15;;;6.55;;
25917;SDS011;13899;51.174;4.456;2023-03-19T02:41:07;8.05;;;7.30;;
25917;SDS011;13899;51.174;4.456;2023-03-19T02:43:34;7.72;;;7.03;;
25917;SDS011;13899;51.174;4.456;2023-03-19T02:46:01;7.25;;;6.57;;
25917;SDS011;13899;51.174;4.456;2023-03-19T02:48:28;7.70;;;6.65;;
25917;SDS011;13899;51.174;4.456;2023-03-19T02:50:54;10.13;;;6.73;;
25917;SDS011;13899;51.174;4.456;2023-03-19T02:53:20;6.68;;;6.07;;
25917;SDS011;13899;51.174;4.456;2023-03-19T02:55:46;7.90;;;7.20;;
25917;SDS011;13899;51.174;4.456;2023-03-19T02:58:12;8.07;;;7.30;;
25917;SDS011;13899;51.174;4.456;2023-03-19T03:00:38;5.43;;;4.90;;
25917;SDS011;13899;51.174;4.456;2023-03-19T03:03:04;7.93;;;7.13;;
25917;SDS011;13899;51.174;4.456;2023-03-19T03:05:31;8.25;;;7.55;;
25917;SDS011;13899;51.174;4.456;2023-03-19T03:07:58;7.93;;;7.18;;
25917;SDS011;13899;51.174;4.456;2023-03-19T03:10:23;9.90;;;7.05;;
25917;SDS011;13899;51.174;4.456;2023-03-19T03:12:49;7.13;;;6.43;;
25917;SDS011;13899;51.174;4.456;2023-03-19T03:15:15;7.03;;;6.32;;
25917;SDS011;13899;51.174;4.456;2023-03-19T03:17:42;7.28;;;6.43;;
25917;SDS011;13899;51.174;4.456;2023-03-19T03:20:10;12.43;;;6.13;;
25917;SDS011;13899;51.174;4.456;2023-03-19T03:22:37;7.70;;;6.95;;
25917;SDS011;13899;51.174;4.456;2023-03-19T03:25:03;7.68;;;6.97;;
25917;SDS011;13899;51.174;4.456;2023-03-19T03:27:30;8.52;;;6.97;;
25917;SDS011;13899;51.174;4.456;2023-03-19T03:29:56;9.57;;;6.70;;
25917;SDS011;13899;51.174;4.456;2023-03-19T03:32:22;7.93;;;7.18;;
25917;SDS011;13899;51.174;4.456;2023-03-19T03:34:48;7.55;;;6.90;;
25917;SDS011;13899;51.174;4.456;2023-03-19T03:37:14;8.57;;;7.72;;
25917;SDS011;13899;51.174;4.456;2023-03-19T03:39:40;8.15;;;7.35;;
25917;SDS011;13899;51.174;4.456;2023-03-19T03:42:06;8.68;;;7.57;;
25917;SDS011;13899;51.174;4.456;2023-03-19T03:44:32;8.60;;;7.67;;
25917;SDS011;13899;51.174;4.456;2023-03-19T03:46:58;9.85;;;7.82;;
25917;SDS011;13899;51.174;4.456;2023-03-19T03:49:23;9.13;;;8.23;;
25917;SDS011;13899;51.174;4.456;2023-03-19T03:51:49;8.70;;;7.90;;
25917;SDS011;13899;51.174;4.456;2023-03-19T03:54:15;11.80;;;8.63;;
25917;SDS011;13899;51.174;4.456;2023-03-19T03:56:41;9.60;;;8.70;;
25917;SDS011;13899;51.174;4.456;2023-03-19T03:59:07;10.00;;;8.27;;
25917;SDS011;13899;51.174;4.456;2023-03-19T04:01:33;9.00;;;7.50;;
25917;SDS011;13899;51.174;4.456;2023-03-19T04:03:59;8.60;;;7.43;;
25917;SDS011;13899;51.174;4.456;2023-03-19T04:06:25;8.57;;;7.33;;
25917;SDS011;13899;51.174;4.456;2023-03-19T04:11:17;8.03;;;7.23;;
25917;SDS011;13899;51.174;4.456;2023-03-19T04:13:43;9.80;;;7.00;;
25917;SDS011;13899;51.174;4.456;2023-03-19T04:16:08;11.50;;;7.68;;
25917;SDS011;13899;51.174;4.456;2023-03-19T04:18:35;9.68;;;8.10;;
25917;SDS011;13899;51.174;4.456;2023-03-19T04:21:01;8.25;;;7.45;;
25917;SDS011;13899;51.174;4.456;2023-03-19T04:23:28;10.32;;;7.60;;
25917;SDS011;13899;51.174;4.456;2023-03-19T04:26:00;13.90;;;8.77;;
25917;SDS011;13899;51.174;4.456;2023-03-19T04:28:28;9.30;;;8.32;;
25917;SDS011;13899;51.174;4.456;2023-03-19T04:30:58;9.57;;;8.68;;
25917;SDS011;13899;51.174;4.456;2023-03-19T04:33:24;12.13;;;8.25;;
25917;SDS011;13899;51.174;4.456;2023-03-19T04:35:50;8.70;;;7.80;;
25917;SDS011;13899;51.174;4.456;2023-03-19T04:38:15;9.27;;;8.27;;
25917;SDS011;13899;51.174;4.456;2023-03-19T04:40:42;10.95;;;7.85;;
25917;SDS011;13899;51.174;4.456;2023-03-19T04:43:07;11.63;;;8.03;;
25917;SDS011;13899;51.174;4.456;2023-03-19T04:45:33;9.90;;;8.75;;
25917;SDS011;13899;51.174;4.456;2023-03-19T04:47:58;8.77;;;7.63;;
25917;SDS011;13899;51.174;4.456;2023-03-19T04:50:25;8.88;;;8.02;;
25917;SDS011;13899;51.174;4.456;2023-03-19T04:52:51;8.43;;;7.32;;
25917;SDS011;13899;51.174;4.456;2023-03-19T04:55:17;11.27;;;8.25;;
25917;SDS011;13899;51.174;4.456;2023-03-19T04:57:43;13.20;;;8.23;;
25917;SDS011;13899;51.174;4.456;2023-03-19T05:00:08;10.27;;;6.85;;
25917;SDS011;13899;51.174;4.456;2023-03-19T05:02:34;10.40;;;7.18;;
25917;SDS011;13899;51.174;4.456;2023-03-19T05:05:01;10.80;;;7.20;;
25917;SDS011;13899;51.174;4.456;2023-03-19T05:07:27;6.87;;;5.43;;
25917;SDS011;13899;51.174;4.456;2023-03-19T05:09:52;13.00;;;6.27;;
25917;SDS011;13899;51.174;4.456;2023-03-19T05:12:18;10.27;;;6.10;;
25917;SDS011;13899;51.174;4.456;2023-03-19T05:14:44;10.63;;;5.57;;
25917;SDS011;13899;51.174;4.456;2023-03-19T05:17:09;8.82;;;5.50;;
25917;SDS011;13899;51.174;4.456;2023-03-19T05:19:36;11.48;;;5.57;;
25917;SDS011;13899;51.174;4.456;2023-03-19T05:22:03;8.98;;;5.18;;
25917;SDS011;13899;51.174;4.456;2023-03-19T05:24:29;10.03;;;5.67;;
25917;SDS011;13899;51.174;4.456;2023-03-19T05:26:54;5.00;;;3.97;;
25917;SDS011;13899;51.174;4.456;2023-03-19T05:29:21;14.10;;;5.45;;
25917;SDS011;13899;51.174;4.456;2023-03-19T05:31:47;6.88;;;4.75;;
25917;SDS011;13899;51.174;4.456;2023-03-19T05:34:12;11.17;;;6.23;;
25917;SDS011;13899;51.174;4.456;2023-03-19T05:36:38;7.80;;;5.77;;
25917;SDS011;13899;51.174;4.456;2023-03-19T05:39:04;7.47;;;5.67;;
25917;SDS011;13899;51.174;4.456;2023-03-19T05:41:30;12.30;;;6.07;;
25917;SDS011;13899;51.174;4.456;2023-03-19T05:43:56;9.33;;;5.37;;
25917;SDS011;13899;51.174;4.456;2023-03-19T05:46:22;13.90;;;5.80;;
25917;SDS011;13899;51.174;4.456;2023-03-19T05:48:48;12.95;;;5.68;;
25917;SDS011;13899;51.174;4.456;2023-03-19T05:51:14;8.87;;;5.50;;
25917;SDS011;13899;51.174;4.456;2023-03-19T05:53:40;10.37;;;5.80;;
25917;SDS011;13899;51.174;4.456;2023-03-19T05:56:05;9.32;;;5.72;;
25917;SDS011;13899;51.174;4.456;2023-03-19T05:58:31;9.67;;;5.57;;
25917;SDS011;13899;51.174;4.456;2023-03-19T06:00:57;9.95;;;5.10;;
25917;SDS011;13899;51.174;4.456;2023-03-19T06:03:22;11.95;;;5.85;;
25917;SDS011;13899;51.174;4.456;2023-03-19T06:05:50;7.35;;;5.40;;
25917;SDS011;13899;51.174;4.456;2023-03-19T06:08:16;6.70;;;5.13;;
25917;SDS011;13899;51.174;4.456;2023-03-19T06:10:42;9.20;;;6.28;;
25917;SDS011;13899;51.174;4.456;2023-03-19T06:13:08;10.40;;;6.50;;
25917;SDS011;13899;51.174;4.456;2023-03-19T06:15:34;7.97;;;6.43;;
25917;SDS011;13899;51.174;4.456;2023-03-19T06:17:59;10.60;;;6.97;;
25917;SDS011;13899;51.174;4.456;2023-03-19T06:20:25;10.63;;;6.40;;
25917;SDS011;13899;51.174;4.456;2023-03-19T06:22:51;11.10;;;6.47;;
25917;SDS011;13899;51.174;4.456;2023-03-19T06:25:17;10.53;;;6.73;;
25917;SDS011;13899;51.174;4.456;2023-03-19T06:27:42;11.57;;;6.90;;
25917;SDS011;13899;51.174;4.456;2023-03-19T06:30:08;7.60;;;5.88;;
25917;SDS011;13899;51.174;4.456;2023-03-19T06:32:34;11.98;;;7.78;;
25917;SDS011;13899;51.174;4.456;2023-03-19T06:35:01;9.87;;;7.03;;
25917;SDS011;13899;51.174;4.456;2023-03-19T06:37:27;8.50;;;6.43;;
25917;SDS011;13899;51.174;4.456;2023-03-19T06:39:52;15.03;;;6.20;;
25917;SDS011;13899;51.174;4.456;2023-03-19T06:42:21;9.20;;;6.07;;
25917;SDS011;13899;51.174;4.456;2023-03-19T06:44:47;13.97;;;6.43;;
25917;SDS011;13899;51.174;4.456;2023-03-19T06:47:13;8.43;;;5.80;;
25917;SDS011;13899;51.174;4.456;2023-03-19T06:49:39;10.00;;;5.97;;
25917;SDS011;13899;51.174;4.456;2023-03-19T06:52:05;14.65;;;6.82;;
25917;SDS011;13899;51.174;4.456;2023-03-19T06:54:31;9.70;;;5.63;;
25917;SDS011;13899;51.174;4.456;2023-03-19T06:56:57;12.30;;;5.87;;
25917;SDS011;13899;51.174;4.456;2023-03-19T06:59:23;9.82;;;5.70;;
25917;SDS011;13899;51.174;4.456;2023-03-19T07:01:49;11.38;;;5.55;;
25917;SDS011;13899;51.174;4.456;2023-03-19T07:04:16;9.60;;;5.50;;
25917;SDS011;13899;51.174;4.456;2023-03-19T07:06:42;12.77;;;5.90;;
25917;SDS011;13899;51.174;4.456;2023-03-19T07:09:08;11.73;;;5.40;;
25917;SDS011;13899;51.174;4.456;2023-03-19T07:11:33;10.93;;;5.60;;
25917;SDS011;13899;51.174;4.456;2023-03-19T07:13:59;12.97;;;5.73;;
25917;SDS011;13899;51.174;4.456;2023-03-19T07:16:25;11.68;;;5.53;;
25917;SDS011;13899;51.174;4.456;2023-03-19T07:18:50;10.82;;;4.50;;
25917;SDS011;13899;51.174;4.456;2023-03-19T07:21:16;11.95;;;5.25;;
25917;SDS011;13899;51.174;4.456;2023-03-19T07:23:41;12.90;;;4.70;;
25917;SDS011;13899;51.174;4.456;2023-03-19T07:26:07;10.07;;;5.30;;
25917;SDS011;13899;51.174;4.456;2023-03-19T07:28:33;7.70;;;4.13;;
25917;SDS011;13899;51.174;4.456;2023-03-19T07:30:58;15.23;;;5.35;;
25917;SDS011;13899;51.174;4.456;2023-03-19T07:33:24;13.90;;;5.43;;
25917;SDS011;13899;51.174;4.456;2023-03-19T07:35:50;10.38;;;5.00;;
25917;SDS011;13899;51.174;4.456;2023-03-19T07:38:16;14.63;;;4.90;;
25917;SDS011;13899;51.174;4.456;2023-03-19T07:40:43;13.40;;;4.67;;
25917;SDS011;13899;51.174;4.456;2023-03-19T07:45:34;9.67;;;5.23;;
25917;SDS011;13899;51.174;4.456;2023-03-19T07:48:00;12.25;;;5.55;;
25917;SDS011;13899;51.174;4.456;2023-03-19T07:50:28;19.35;;;6.25;;
25917;SDS011;13899;51.174;4.456;2023-03-19T07:52:54;10.80;;;4.60;;
25917;SDS011;13899;51.174;4.456;2023-03-19T07:55:20;12.33;;;5.60;;
25917;SDS011;13899;51.174;4.456;2023-03-19T07:57:46;16.63;;;6.20;;
25917;SDS011;13899;51.174;4.456;2023-03-19T08:00:13;13.93;;;5.37;;
25917;SDS011;13899;51.174;4.456;2023-03-19T08:03:11;14.35;;;5.68;;
25917;SDS011;13899;51.174;4.456;2023-03-19T08:05:37;9.33;;;5.07;;
25917;SDS011;13899;51.174;4.456;2023-03-19T08:08:03;12.07;;;4.97;;
25917;SDS011;13899;51.174;4.456;2023-03-19T08:10:29;8.90;;;4.43;;
25917;SDS011;13899;51.174;4.456;2023-03-19T08:12:55;8.75;;;5.22;;
25917;SDS011;13899;51.174;4.456;2023-03-19T08:15:20;8.18;;;4.82;;
25917;SDS011;13899;51.174;4.456;2023-03-19T08:17:46;12.10;;;5.90;;
25917;SDS011;13899;51.174;4.456;2023-03-19T08:20:13;12.45;;;5.63;;
25917;SDS011;13899;51.174;4.456;2023-03-19T08:22:43;15.52;;;6.28;;
25917;SDS011;13899;51.174;4.456;2023-03-19T08:25:13;13.40;;;5.68;;
25917;SDS011;13899;51.174;4.456;2023-03-19T08:27:39;10.50;;;5.27;;
25917;SDS011;13899;51.174;4.456;2023-03-19T08:30:06;9.50;;;5.13;;
25917;SDS011;13899;51.174;4.456;2023-03-19T08:32:33;8.90;;;4.80;;
25917;SDS011;13899;51.174;4.456;2023-03-19T08:35:01;12.63;;;4.95;;
25917;SDS011;13899;51.174;4.456;2023-03-19T08:37:27;9.20;;;5.00;;
25917;SDS011;13899;51.174;4.456;2023-03-19T08:39:53;14.23;;;5.13;;
25917;SDS011;13899;51.174;4.456;2023-03-19T08:42:19;10.95;;;4.75;;
25917;SDS011;13899;51.174;4.456;2023-03-19T08:44:46;12.10;;;5.70;;
25917;SDS011;13899;51.174;4.456;2023-03-19T08:47:12;8.20;;;5.28;;
25917;SDS011;13899;51.174;4.456;2023-03-19T08:49:38;7.78;;;5.13;;
25917;SDS011;13899;51.174;4.456;2023-03-19T08:52:04;14.60;;;5.40;;
25917;SDS011;13899;51.174;4.456;2023-03-19T08:54:30;10.80;;;4.65;;
25917;SDS011;13899;51.174;4.456;2023-03-19T08:56:56;8.45;;;4.85;;
25917;SDS011;13899;51.174;4.456;2023-03-19T09:01:52;9.07;;;5.10;;
25917;SDS011;13899;51.174;4.456;2023-03-19T09:04:21;7.55;;;5.70;;
25917;SDS011;13899;51.174;4.456;2023-03-19T09:06:47;11.00;;;5.35;;
25917;SDS011;13899;51.174;4.456;2023-03-19T09:09:19;10.40;;;4.68;;
25917;SDS011;13899;51.174;4.456;2023-03-19T09:11:46;9.15;;;5.22;;
25917;SDS011;13899;51.174;4.456;2023-03-19T09:14:13;8.80;;;4.82;;
25917;SDS011;13899;51.174;4.456;2023-03-19T09:16:40;8.07;;;5.60;;
25917;SDS011;13899;51.174;4.456;2023-03-19T09:19:06;13.88;;;5.10;;
25917;SDS011;13899;51.174;4.456;2023-03-19T09:21:33;8.05;;;5.30;;
25917;SDS011;13899;51.174;4.456;2023-03-19T09:24:00;9.40;;;5.80;;
25917;SDS011;13899;51.174;4.456;2023-03-19T09:26:26;10.27;;;5.47;;
25917;SDS011;13899;51.174;4.456;2023-03-19T09:28:51;7.97;;;4.67;;
25917;SDS011;13899;51.174;4.456;2023-03-19T09:31:17;7.60;;;5.57;;
25917;SDS011;13899;51.174;4.456;2023-03-19T09:33:42;9.70;;;5.27;;
25917;SDS011;13899;51.174;4.456;2023-03-19T09:36:08;8.68;;;5.22;;
25917;SDS011;13899;51.174;4.456;2023-03-19T09:38:34;8.82;;;5.40;;
25917;SDS011;13899;51.174;4.456;2023-03-19T09:41:07;10.63;;;5.65;;
25917;SDS011;13899;51.174;4.456;2023-03-19T09:44:02;12.02;;;5.75;;
25917;SDS011;13899;51.174;4.456;2023-03-19T09:49:24;14.20;;;5.72;;
25917;SDS011;13899;51.174;4.456;2023-03-19T09:52:01;6.50;;;5.20;;
25917;SDS011;13899;51.174;4.456;2023-03-19T09:54:43;7.68;;;5.25;;
25917;SDS011;13899;51.174;4.456;2023-03-19T09:57:12;11.65;;;5.57;;
25917;SDS011;13899;51.174;4.456;2023-03-19T09:59:38;11.13;;;5.93;;
25917;SDS011;13899;51.174;4.456;2023-03-19T10:02:27;12.18;;;5.82;;
25917;SDS011;13899;51.174;4.456;2023-03-19T10:05:00;9.73;;;6.22;;
25917;SDS011;13899;51.174;4.456;2023-03-19T10:15:54;13.25;;;8.68;;
25917;SDS011;13899;51.174;4.456;2023-03-19T10:18:21;12.27;;;8.40;;
25917;SDS011;13899;51.174;4.456;2023-03-19T10:21:02;9.32;;;6.53;;
25917;SDS011;13899;51.174;4.456;2023-03-19T10:26:17;18.23;;;14.93;;
25917;SDS011;13899;51.174;4.456;2023-03-19T10:28:50;25.35;;;16.90;;
25917;SDS011;13899;51.174;4.456;2023-03-19T10:31:41;20.02;;;15.05;;
25917;SDS011;13899;51.174;4.456;2023-03-19T10:37:15;19.88;;;14.20;;
25917;SDS011;13899;51.174;4.456;2023-03-19T10:39:42;21.60;;;17.65;;
25917;SDS011;13899;51.174;4.456;2023-03-19T10:47:55;24.58;;;18.77;;
25917;SDS011;13899;51.174;4.456;2023-03-19T10:50:27;23.23;;;18.63;;
25917;SDS011;13899;51.174;4.456;2023-03-19T10:55:31;29.92;;;19.73;;
25917;SDS011;13899;51.174;4.456;2023-03-19T10:58:15;22.05;;;19.75;;
25917;SDS011;13899;51.174;4.456;2023-03-19T11:00:46;23.85;;;18.45;;
25917;SDS011;13899;51.174;4.456;2023-03-19T11:03:59;25.35;;;18.92;;
25917;SDS011;13899;51.174;4.456;2023-03-19T11:06:20;26.80;;;19.10;;
25917;SDS011;13899;51.174;4.456;2023-03-19T11:08:54;23.98;;;19.40;;
25917;SDS011;13899;51.174;4.456;2023-03-19T11:11:22;19.63;;;17.45;;
25917;SDS011;13899;51.174;4.456;2023-03-19T11:22:55;22.33;;;15.50;;
25917;SDS011;13899;51.174;4.456;2023-03-19T11:28:01;18.60;;;12.95;;
25917;SDS011;13899;51.174;4.456;2023-03-19T11:39:18;16.95;;;14.43;;
25917;SDS011;13899;51.174;4.456;2023-03-19T11:45:10;15.07;;;13.57;;
25917;SDS011;13899;51.174;4.456;2023-03-19T12:01:09;12.50;;;11.20;;
25917;SDS011;13899;51.174;4.456;2023-03-19T12:06:53;14.25;;;10.50;;
25917;SDS011;13899;51.174;4.456;2023-03-19T12:25:26;14.95;;;12.00;;
25917;SDS011;13899;51.174;4.456;2023-03-19T12:30:44;17.23;;;12.05;;
25917;SDS011;13899;51.174;4.456;2023-03-19T12:36:15;11.55;;;9.77;;
25917;SDS011;13899;51.174;4.456;2023-03-19T12:38:49;10.45;;;8.50;;
25917;SDS011;13899;51.174;4.456;2023-03-19T12:41:25;10.43;;;8.95;;
25917;SDS011;13899;51.174;4.456;2023-03-19T12:44:07;9.40;;;8.00;;
25917;SDS011;13899;51.174;4.456;2023-03-19T12:46:41;11.50;;;9.30;;
25917;SDS011;13899;51.174;4.456;2023-03-19T12:51:58;22.67;;;21.27;;
25917;SDS011;13899;51.174;4.456;2023-03-19T12:54:35;15.23;;;14.00;;
25917;SDS011;13899;51.174;4.456;2023-03-19T13:02:28;12.25;;;9.27;;
25917;SDS011;13899;51.174;4.456;2023-03-19T13:05:00;15.88;;;11.73;;
25917;SDS011;13899;51.174;4.456;2023-03-19T13:07:49;19.75;;;12.43;;
25917;SDS011;13899;51.174;4.456;2023-03-19T13:10:21;20.70;;;12.27;;
25917;SDS011;13899;51.174;4.456;2023-03-19T13:12:49;17.27;;;13.87;;
25917;SDS011;13899;51.174;4.456;2023-03-19T13:15:24;15.70;;;12.68;;
25917;SDS011;13899;51.174;4.456;2023-03-19T13:20:47;11.70;;;10.38;;
25917;SDS011;13899;51.174;4.456;2023-03-19T13:23:18;12.93;;;9.88;;
25917;SDS011;13899;51.174;4.456;2023-03-19T13:25:51;8.23;;;7.40;;
25917;SDS011;13899;51.174;4.456;2023-03-19T13:28:28;9.10;;;8.20;;
25917;SDS011;13899;51.174;4.456;2023-03-19T13:31:05;8.15;;;7.00;;
25917;SDS011;13899;51.174;4.456;2023-03-19T13:33:47;9.10;;;7.95;;
25917;SDS011;13899;51.174;4.456;2023-03-19T13:36:24;8.13;;;7.30;;
25917;SDS011;13899;51.174;4.456;2023-03-19T13:38:52;11.80;;;10.73;;
25917;SDS011;13899;51.174;4.456;2023-03-19T13:43:57;14.70;;;13.40;;
25917;SDS011;13899;51.174;4.456;2023-03-19T13:46:34;11.13;;;10.02;;
25917;SDS011;13899;51.174;4.456;2023-03-19T13:49:07;24.42;;;22.83;;
25917;SDS011;13899;51.174;4.456;2023-03-19T13:51:49;11.55;;;10.50;;
25917;SDS011;13899;51.174;4.456;2023-03-19T13:54:18;10.32;;;9.23;;
25917;SDS011;13899;51.174;4.456;2023-03-19T13:59:36;11.70;;;10.60;;
25917;SDS011;13899;51.174;4.456;2023-03-19T14:02:43;19.35;;;18.05;;
25917;SDS011;13899;51.174;4.456;2023-03-19T14:07:41;13.77;;;12.63;;
25917;SDS011;13899;51.174;4.456;2023-03-19T14:12:49;15.38;;;13.90;;
25917;SDS011;13899;51.174;4.456;2023-03-19T14:15:20;15.85;;;14.60;;
25917;SDS011;13899;51.174;4.456;2023-03-19T14:22:39;10.83;;;9.83;;
25917;SDS011;13899;51.174;4.456;2023-03-19T14:25:25;13.00;;;11.77;;
25917;SDS011;13899;51.174;4.456;2023-03-19T14:28:14;10.80;;;9.68;;
25917;SDS011;13899;51.174;4.456;2023-03-19T14:30:46;11.27;;;9.98;;
25917;SDS011;13899;51.174;4.456;2023-03-19T14:33:25;9.30;;;8.45;;
25917;SDS011;13899;51.174;4.456;2023-03-19T14:35:58;9.32;;;8.35;;
25917;SDS011;13899;51.174;4.456;2023-03-19T14:38:48;9.25;;;7.80;;
25917;SDS011;13899;51.174;4.456;2023-03-19T14:41:18;11.80;;;6.60;;
25917;SDS011;13899;51.174;4.456;2023-03-19T14:44:02;7.75;;;5.93;;
25917;SDS011;13899;51.174;4.456;2023-03-19T14:52:22;7.10;;;5.80;;
25917;SDS011;13899;51.174;4.456;2023-03-19T14:57:30;6.88;;;6.18;;
25917;SDS011;13899;51.174;4.456;2023-03-19T14:59:57;6.15;;;5.25;;
25917;SDS011;13899;51.174;4.456;2023-03-19T15:02:30;6.33;;;4.87;;
25917;SDS011;13899;51.174;4.456;2023-03-19T15:07:53;5.82;;;5.22;;
25917;SDS011;13899;51.174;4.456;2023-03-19T15:10:26;6.45;;;4.63;;
25917;SDS011;13899;51.174;4.456;2023-03-19T15:18:43;8.70;;;5.28;;
25917;SDS011;13899;51.174;4.456;2023-03-19T15:21:09;5.57;;;5.07;;
25917;SDS011;13899;51.174;4.456;2023-03-19T15:23:36;8.48;;;5.40;;
25917;SDS011;13899;51.174;4.456;2023-03-19T15:26:03;6.68;;;6.05;;
25917;SDS011;13899;51.174;4.456;2023-03-19T15:28:33;7.65;;;6.80;;
25917;SDS011;13899;51.174;4.456;2023-03-19T15:31:10;7.18;;;6.18;;
25917;SDS011;13899;51.174;4.456;2023-03-19T15:33:37;7.72;;;6.10;;
25917;SDS011;13899;51.174;4.456;2023-03-19T15:38:36;6.93;;;6.03;;
25917;SDS011;13899;51.174;4.456;2023-03-19T15:41:07;8.20;;;6.85;;
25917;SDS011;13899;51.174;4.456;2023-03-19T15:43:35;8.30;;;6.10;;
25917;SDS011;13899;51.174;4.456;2023-03-19T15:46:05;9.57;;;6.88;;
25917;SDS011;13899;51.174;4.456;2023-03-19T15:48:37;16.67;;;6.63;;
25917;SDS011;13899;51.174;4.456;2023-03-19T15:51:16;6.38;;;5.53;;
25917;SDS011;13899;51.174;4.456;2023-03-19T15:53:45;8.13;;;6.05;;
25917;SDS011;13899;51.174;4.456;2023-03-19T15:56:12;8.10;;;6.57;;
25917;SDS011;13899;51.174;4.456;2023-03-19T15:58:41;8.27;;;6.80;;
25917;SDS011;13899;51.174;4.456;2023-03-19T16:01:11;8.10;;;6.78;;
25917;SDS011;13899;51.174;4.456;2023-03-19T16:06:27;16.90;;;6.78;;
25917;SDS011;13899;51.174;4.456;2023-03-19T16:09:10;6.90;;;6.15;;
25917;SDS011;13899;51.174;4.456;2023-03-19T16:11:43;9.77;;;6.15;;
25917;SDS011;13899;51.174;4.456;2023-03-19T16:16:43;8.57;;;5.93;;
25917;SDS011;13899;51.174;4.456;2023-03-19T16:21:55;7.68;;;6.60;;
25917;SDS011;13899;51.174;4.456;2023-03-19T16:29:31;7.15;;;6.13;;
25917;SDS011;13899;51.174;4.456;2023-03-19T16:34:51;7.45;;;6.30;;
25917;SDS011;13899;51.174;4.456;2023-03-19T16:47:53;6.03;;;4.88;;
25917;SDS011;13899;51.174;4.456;2023-03-19T16:50:21;5.93;;;5.10;;
25917;SDS011;13899;51.174;4.456;2023-03-19T16:52:56;6.20;;;4.80;;
25917;SDS011;13899;51.174;4.456;2023-03-19T16:55:27;5.57;;;4.18;;
25917;SDS011;13899;51.174;4.456;2023-03-19T16:58:13;5.15;;;4.35;;
25917;SDS011;13899;51.174;4.456;2023-03-19T17:00:41;6.20;;;4.78;;
25917;SDS011;13899;51.174;4.456;2023-03-19T17:03:12;5.95;;;4.40;;
25917;SDS011;13899;51.174;4.456;2023-03-19T17:05:39;8.80;;;5.22;;
25917;SDS011;13899;51.174;4.456;2023-03-19T17:08:05;6.25;;;4.60;;
25917;SDS011;13899;51.174;4.456;2023-03-19T17:10:33;7.03;;;4.90;;
25917;SDS011;13899;51.174;4.456;2023-03-19T17:13:01;8.48;;;4.63;;
25917;SDS011;13899;51.174;4.456;2023-03-19T17:15:28;6.55;;;3.90;;
25917;SDS011;13899;51.174;4.456;2023-03-19T17:17:59;5.82;;;3.85;;
25917;SDS011;13899;51.174;4.456;2023-03-19T17:20:34;4.78;;;3.85;;
25917;SDS011;13899;51.174;4.456;2023-03-19T17:23:10;5.53;;;4.47;;
25917;SDS011;13899;51.174;4.456;2023-03-19T17:25:37;5.60;;;4.38;;
25917;SDS011;13899;51.174;4.456;2023-03-19T17:28:03;4.57;;;3.60;;
25917;SDS011;13899;51.174;4.456;2023-03-19T17:30:30;7.20;;;4.10;;
25917;SDS011;13899;51.174;4.456;2023-03-19T17:32:57;6.75;;;4.43;;
25917;SDS011;13899;51.174;4.456;2023-03-19T17:35:24;5.95;;;4.22;;
25917;SDS011;13899;51.174;4.456;2023-03-19T17:37:51;6.00;;;4.25;;
25917;SDS011;13899;51.174;4.456;2023-03-19T17:40:17;4.90;;;3.47;;
25917;SDS011;13899;51.174;4.456;2023-03-19T17:42:45;6.10;;;4.45;;